Time;durP1;ratioP1;P1;durP2;ratioP2;P2;SDS_P1;SDS_P2;PMS_P1;PMS_P2;Temp;Humidity;BMP_temperature;BMP_pressure;BME280_temperature;BME280_humidity;BME280_pressure;Samples;Min_cycle;Max_cycle;Signal;HPM_P1;HPM_P2
2021/03/02 00:01:12;;;;;;;23.00;16.30;;;14.00;57.30;;;;;;5081015;28;20044;-77
2021/03/02 00:03:38;;;;;;;22.92;16.55;;;14.00;57.30;;;;;;5097037;28;20055;-77
2021/03/02 00:06:06;;;;;;;22.85;16.17;;;14.00;57.30;;;;;;5096878;28;20040;-76
2021/03/02 00:08:36;;;;;;;22.55;15.93;;;13.90;57.30;;;;;;5079362;28;20094;-79
2021/03/02 00:11:03;;;;;;;22.60;16.27;;;13.90;57.30;;;;;;5097235;28;20040;-77
2021/03/02 00:13:29;;;;;;;23.48;16.52;;;13.90;57.30;;;;;;5078935;28;20044;-78
2021/03/02 00:16:00;;;;;;;24.10;17.88;;;13.90;57.20;;;;;;5097025;28;20040;-78
2021/03/02 00:18:32;;;;;;;22.33;16.25;;;13.90;57.30;;;;;;5096172;28;20040;-78
2021/03/02 00:21:04;;;;;;;20.75;15.85;;;13.90;57.30;;;;;;5096950;28;20043;-79
2021/03/02 00:23:36;;;;;;;22.52;16.63;;;13.90;57.20;;;;;;5097081;28;20044;-77
2021/03/02 00:26:02;;;;;;;20.65;15.60;;;13.80;57.20;;;;;;5089644;28;20047;-77
2021/03/02 00:28:29;;;;;;;22.67;16.60;;;13.80;57.20;;;;;;5077863;28;20047;-78
2021/03/02 00:30:55;;;;;;;21.15;15.63;;;13.80;57.90;;;;;;5082817;28;20481;-78
2021/03/02 00:33:23;;;;;;;22.60;16.08;;;13.80;57.20;;;;;;5096201;28;20066;-79
2021/03/02 00:35:49;;;;;;;22.23;16.00;;;13.80;57.20;;;;;;5095896;28;20051;-77
2021/03/02 00:38:15;;;;;;;22.75;15.98;;;13.80;57.20;;;;;;5095493;28;20437;-77
2021/03/02 00:40:40;;;;;;;23.90;17.30;;;13.80;57.20;;;;;;5097913;28;20428;-78
2021/03/02 00:43:07;;;;;;;23.52;16.90;;;13.80;57.20;;;;;;5097792;28;20048;-78
2021/03/02 00:45:33;;;;;;;24.27;17.42;;;13.80;57.20;;;;;;5090699;28;20040;-78
2021/03/02 00:47:59;;;;;;;25.10;16.25;;;13.80;57.20;;;;;;5097489;28;20048;-77
2021/03/02 00:50:26;;;;;;;24.83;17.58;;;13.70;57.20;;;;;;5084806;28;20037;-77
2021/03/02 00:52:53;;;;;;;22.17;17.13;;;13.70;57.20;;;;;;5077469;28;20352;-79
2021/03/02 00:55:20;;;;;;;25.63;17.10;;;13.70;57.10;;;;;;5086678;28;20051;-79
2021/03/02 00:57:46;;;;;;;23.88;17.13;;;13.70;57.10;;;;;;5096869;28;20051;-77
2021/03/02 01:00:13;;;;;;;27.98;18.50;;;13.70;57.10;;;;;;5097361;28;20040;-78
2021/03/02 01:02:39;;;;;;;23.92;17.25;;;13.70;57.10;;;;;;5084572;28;20059;-78
2021/03/02 01:05:07;;;;;;;27.00;19.10;;;13.70;57.20;;;;;;5077102;28;20143;-79
2021/03/02 01:07:34;;;;;;;23.63;17.35;;;13.60;57.10;;;;;;5077239;28;20040;-77
2021/03/02 01:10:01;;;;;;;26.75;17.90;;;13.70;57.10;;;;;;5077155;28;20048;-77
2021/03/02 01:12:28;;;;;;;26.98;19.17;;;13.60;57.10;;;;;;5077239;28;20052;-79
2021/03/02 01:14:58;;;;;;;25.42;17.35;;;13.60;57.10;;;;;;5077715;28;20040;-78
2021/03/02 01:17:25;;;;;;;26.98;18.73;;;13.60;57.10;;;;;;5077189;28;20495;-78
2021/03/02 01:19:51;;;;;;;24.48;18.90;;;13.60;57.10;;;;;;5090676;28;20056;-78
2021/03/02 01:22:17;;;;;;;25.42;17.55;;;13.60;57.00;;;;;;5104248;28;20050;-77
2021/03/02 01:24:43;;;;;;;26.60;18.17;;;13.60;57.00;;;;;;5117508;28;20114;-78
2021/03/02 01:27:09;;;;;;;26.48;19.08;;;13.60;57.10;;;;;;5117529;28;20426;-77
2021/03/02 01:29:35;;;;;;;26.15;18.08;;;13.60;57.00;;;;;;5115313;28;20043;-80
2021/03/02 01:43:03;;;;;;;29.30;19.90;;;13.60;56.90;;;;;;5096591;28;20042;-77
2021/03/02 01:45:29;;;;;;;26.90;19.20;;;13.60;56.90;;;;;;5096785;28;20044;-77
2021/03/02 01:47:55;;;;;;;26.05;18.80;;;13.60;56.80;;;;;;5096586;28;20047;-76
2021/03/02 01:50:22;;;;;;;29.13;19.67;;;13.60;56.80;;;;;;5096350;28;20131;-78
2021/03/02 01:52:48;;;;;;;27.90;18.85;;;13.60;56.70;;;;;;5070218;28;20044;-79
2021/03/02 01:55:16;;;;;;;31.83;22.27;;;13.60;56.70;;;;;;5096332;28;20051;-78
2021/03/02 01:57:43;;;;;;;29.63;19.92;;;13.60;56.70;;;;;;5096383;28;20056;-76
2021/03/02 02:00:09;;;;;;;28.45;19.70;;;13.60;56.80;;;;;;5096263;28;20044;-76
2021/03/02 02:02:42;;;;;;;28.60;19.45;;;13.60;56.90;;;;;;5103643;28;20115;-78
2021/03/02 02:05:13;;;;;;;30.65;19.70;;;13.60;56.90;;;;;;5116472;28;20471;-76
2021/03/02 02:07:42;;;;;;;32.00;21.63;;;13.60;56.90;;;;;;5116976;28;20120;-79
2021/03/02 02:10:23;;;;;;;26.55;18.75;;;13.50;56.90;;;;;;5114456;28;20081;-78
2021/03/02 02:13:01;;;;;;;28.52;19.58;;;13.50;56.70;;;;;;5106195;28;20047;-77
2021/03/02 02:15:31;;;;;;;30.13;20.52;;;13.50;56.70;;;;;;5096409;28;20040;-78
2021/03/02 02:18:08;;;;;;;30.85;21.02;;;13.50;56.50;;;;;;5095724;28;20109;-79
2021/03/02 02:20:42;;;;;;;32.13;20.35;;;13.50;56.60;;;;;;5078344;28;20066;-78
2021/03/02 02:23:13;;;;;;;;;;;13.50;56.60;;;;;;5087506;28;20349;-78
2021/03/02 02:26:27;;;;;;;29.58;20.88;;;13.50;56.70;;;;;;5095600;28;19924;-78
2021/03/02 02:28:55;;;;;;;29.85;20.73;;;13.50;56.70;;;;;;5073787;28;20056;-77
2021/03/02 02:31:22;;;;;;;30.10;20.95;;;13.50;56.70;;;;;;5096453;28;20043;-79
2021/03/02 02:33:50;;;;;;;31.42;21.98;;;13.50;56.70;;;;;;5092078;28;20040;-79
2021/03/02 02:36:17;;;;;;;29.70;20.00;;;13.50;56.70;;;;;;5095173;28;20453;-77
2021/03/02 02:38:47;;;;;;;30.48;20.25;;;13.50;56.60;;;;;;5094788;28;20047;-77
2021/03/02 02:41:14;;;;;;;31.80;21.65;;;13.50;56.70;;;;;;5095841;28;20113;-77
2021/03/02 02:43:40;;;;;;;28.52;20.55;;;13.40;56.60;;;;;;5087772;28;20044;-77
2021/03/02 02:46:07;;;;;;;31.05;21.30;;;13.40;56.60;;;;;;5095716;28;20036;-77
2021/03/02 02:48:33;;;;;;;31.58;21.50;;;13.40;56.60;;;;;;5090985;28;20515;-77
2021/03/02 02:51:00;;;;;;;30.38;20.88;;;13.40;56.60;;;;;;5074823;28;20060;-77
2021/03/02 02:53:26;;;;;;;33.10;21.92;;;13.40;56.60;;;;;;5087379;28;20035;-78
2021/03/02 02:55:57;;;;;;;34.28;21.88;;;13.40;56.60;;;;;;5095552;28;20040;-77
2021/03/02 02:58:27;;;;;;;28.70;20.27;;;13.40;57.20;;;;;;5095442;28;20043;-78
2021/03/02 03:00:56;;;;;;;28.75;20.10;;;13.40;56.60;;;;;;5074919;28;20056;-77
2021/03/02 03:03:24;;;;;;;33.53;22.08;;;13.40;56.60;;;;;;5084062;28;20059;-77
2021/03/02 03:05:55;;;;;;;31.05;21.85;;;13.40;56.60;;;;;;5095447;28;20054;-78
2021/03/02 03:08:25;;;;;;;28.08;19.98;;;13.40;56.60;;;;;;5082886;28;20124;-78
2021/03/02 03:10:53;;;;;;;30.10;21.17;;;13.40;56.60;;;;;;5075106;28;20074;-78
2021/03/02 03:13:22;;;;;;;31.95;21.98;;;13.40;56.60;;;;;;5058136;28;20497;-80
2021/03/02 03:15:51;;;;;;;29.65;21.20;;;13.40;56.60;;;;;;5075671;28;20461;-76
2021/03/02 03:18:20;;;;;;;28.10;20.50;;;13.30;56.60;;;;;;5077383;28;20050;-78
2021/03/02 03:20:51;;;;;;;30.23;20.52;;;13.40;56.60;;;;;;5095389;28;20125;-78
2021/03/02 03:23:19;;;;;;;29.80;21.40;;;13.30;56.60;;;;;;5083817;28;20075;-77
2021/03/02 03:25:48;;;;;;;29.73;20.58;;;13.30;56.50;;;;;;5074813;28;20044;-79
2021/03/02 03:28:15;;;;;;;32.10;20.08;;;13.40;56.60;;;;;;5087875;28;20465;-78
2021/03/02 03:30:43;;;;;;;30.27;20.48;;;13.30;56.60;;;;;;5094699;28;20094;-79
2021/03/02 03:33:12;;;;;;;32.85;22.33;;;13.30;56.60;;;;;;5091889;28;20052;-77
2021/03/02 03:35:40;;;;;;;31.25;21.52;;;13.30;56.60;;;;;;5095027;28;20040;-78
2021/03/02 03:38:06;;;;;;;29.85;20.23;;;13.30;56.60;;;;;;5095015;28;20063;-77
2021/03/02 03:40:33;;;;;;;30.77;20.80;;;13.30;56.60;;;;;;5094892;28;20094;-78
2021/03/02 03:42:59;;;;;;;31.15;21.90;;;13.30;56.60;;;;;;5092567;28;20474;-78
2021/03/02 03:45:25;;;;;;;28.10;20.08;;;13.30;56.60;;;;;;5095015;28;20051;-77
2021/03/02 03:47:51;;;;;;;31.38;21.52;;;13.30;56.70;;;;;;5092691;28;20044;-77
2021/03/02 03:50:17;;;;;;;31.30;21.83;;;13.40;56.60;;;;;;5095443;28;20040;-79
2021/03/02 03:52:49;;;;;;;28.90;21.30;;;13.40;56.50;;;;;;5085721;28;20044;-77
2021/03/02 03:55:18;;;;;;;31.80;21.40;;;13.40;56.50;;;;;;5074709;28;20040;-78
2021/03/02 03:57:45;;;;;;;30.85;21.17;;;13.40;56.50;;;;;;5074152;28;20040;-78
2021/03/02 04:00:13;;;;;;;30.23;21.63;;;13.40;56.40;;;;;;5074796;28;20135;-77
2021/03/02 04:02:40;;;;;;;33.40;21.77;;;13.40;56.40;;;;;;5086469;28;20115;-77
2021/03/02 04:05:07;;;;;;;32.72;21.98;;;13.40;56.30;;;;;;5077058;28;20062;-79
2021/03/02 04:07:34;;;;;;;33.22;22.95;;;13.40;56.30;;;;;;5074781;28;20102;-78
2021/03/02 04:10:00;;;;;;;30.00;21.70;;;13.40;56.20;;;;;;5074684;28;20122;-77
2021/03/02 04:12:39;;;;;;;30.45;21.33;;;13.40;56.30;;;;;;5081741;28;20105;-77
2021/03/02 04:15:12;;;;;;;30.75;21.95;;;13.40;56.20;;;;;;5097536;28;20044;-78
2021/03/02 04:17:39;;;;;;;31.35;21.52;;;13.40;56.20;;;;;;5080822;28;20040;-78
2021/03/02 04:20:06;;;;;;;33.10;22.80;;;13.40;56.20;;;;;;5095931;28;20514;-77
2021/03/02 04:22:36;;;;;;;30.40;20.77;;;13.40;56.10;;;;;;5090314;28;20044;-79
2021/03/02 04:25:05;;;;;;;30.80;21.33;;;13.40;56.00;;;;;;5060204;28;20072;-79
2021/03/02 04:27:31;;;;;;;31.00;21.40;;;13.40;56.00;;;;;;5079012;28;20040;-80
2021/03/02 04:29:57;;;;;;;32.05;21.67;;;13.40;56.00;;;;;;5078363;28;20404;-78
2021/03/02 04:32:23;;;;;;;32.60;21.73;;;13.40;56.00;;;;;;5084526;28;20040;-80
2021/03/02 04:34:49;;;;;;;32.05;22.95;;;13.40;56.10;;;;;;5098598;28;20048;-77
2021/03/02 04:37:16;;;;;;;29.50;20.75;;;13.40;56.00;;;;;;5097539;28;20036;-78
2021/03/02 04:39:42;;;;;;;29.67;21.48;;;13.40;56.00;;;;;;5097903;28;20459;-77
2021/03/02 04:42:08;;;;;;;30.90;21.60;;;13.40;56.10;;;;;;5095596;28;20040;-78
2021/03/02 04:44:33;;;;;;;31.67;21.40;;;13.30;56.10;;;;;;5097607;28;20040;-78
2021/03/02 04:46:59;;;;;;;31.60;22.23;;;13.30;56.10;;;;;;5097151;28;20048;-79
2021/03/02 04:49:25;;;;;;;31.42;22.65;;;13.30;56.10;;;;;;5097868;28;20036;-77
2021/03/02 04:51:51;;;;;;;31.27;20.80;;;13.30;56.10;;;;;;5075842;28;20438;-77
2021/03/02 04:54:17;;;;;;;30.52;21.45;;;13.30;56.10;;;;;;5077418;28;20373;-76
2021/03/02 04:56:43;;;;;;;29.08;21.73;;;13.30;56.10;;;;;;5089584;28;20044;-79
2021/03/02 04:59:09;;;;;;;32.40;22.20;;;13.30;56.10;;;;;;5097612;28;20048;-78
2021/03/02 05:01:35;;;;;;;31.15;21.50;;;13.30;56.10;;;;;;5093293;28;20049;-78
2021/03/02 05:04:02;;;;;;;29.73;21.60;;;13.30;56.10;;;;;;5084844;28;20117;-78
2021/03/02 05:06:28;;;;;;;32.20;21.77;;;13.40;56.10;;;;;;5078224;28;20040;-81
2021/03/02 05:08:54;;;;;;;32.95;22.70;;;13.30;56.10;;;;;;5085224;28;20055;-78
2021/03/02 05:11:19;;;;;;;34.97;23.10;;;13.40;56.10;;;;;;5077073;28;20052;-76
2021/03/02 05:13:46;;;;;;;30.55;21.15;;;13.40;56.10;;;;;;5081279;28;20098;-77
2021/03/02 05:16:13;;;;;;;28.33;19.65;;;13.40;56.50;;;;;;5097201;28;20052;-76
2021/03/02 05:18:41;;;;;;;31.02;19.98;;;13.40;57.40;;;;;;5096502;28;20044;-77
2021/03/02 05:21:07;;;;;;;30.65;20.17;;;13.50;58.00;;;;;;5092630;28;20040;-78
2021/03/02 05:23:34;;;;;;;27.98;18.80;;;13.50;58.10;;;;;;5095128;28;20031;-78
2021/03/02 05:26:05;;;;;;;31.25;17.98;;;13.60;58.80;;;;;;5094461;28;20123;-82
2021/03/02 05:28:32;;;;;;;30.60;17.83;;;13.60;58.30;;;;;;5090932;28;20456;-79
2021/03/02 05:30:58;;;;;;;23.50;16.65;;;13.80;58.80;;;;;;5077821;28;20141;-76
2021/03/02 05:33:30;;;;;;;27.95;17.83;;;13.90;59.10;;;;;;5076723;28;20461;-81
2021/03/02 05:35:58;;;;;;;24.45;16.23;;;13.90;59.80;;;;;;5076528;28;20457;-79
2021/03/02 05:38:24;;;;;;;27.17;17.27;;;14.00;60.20;;;;;;5076064;28;20048;-80
2021/03/02 05:40:50;;;;;;;27.00;14.80;;;14.20;60.60;;;;;;5077355;28;20039;-78
2021/03/02 05:43:15;;;;;;;39.97;19.58;;;14.20;60.70;;;;;;5076627;28;20047;-76
2021/03/02 05:45:44;;;;;;;28.17;16.33;;;14.30;60.00;;;;;;5076246;28;20041;-75
2021/03/02 05:48:11;;;;;;;24.40;15.55;;;14.40;60.60;;;;;;5075758;28;20040;-76
2021/03/02 05:50:46;;;;;;;21.83;14.02;;;14.50;60.70;;;;;;5081893;28;20044;-78
2021/03/02 05:53:12;;;;;;;20.90;13.07;;;14.50;60.80;;;;;;5095389;28;20043;-83
2021/03/02 05:55:38;;;;;;;22.58;13.73;;;14.60;60.90;;;;;;5090775;28;20044;-82
2021/03/02 05:58:05;;;;;;;24.33;14.18;;;14.70;61.10;;;;;;5080692;28;20418;-77
2021/03/02 06:00:32;;;;;;;22.05;13.18;;;14.70;61.50;;;;;;5091636;28;20361;-77
2021/03/02 06:02:59;;;;;;;21.50;12.98;;;14.80;61.70;;;;;;5076050;28;20044;-76
2021/03/02 06:05:25;;;;;;;20.50;13.63;;;14.90;61.70;;;;;;5076183;28;20050;-77
2021/03/02 06:07:51;;;;;;;16.13;12.27;;;14.90;61.60;;;;;;5076110;28;20138;-76
2021/03/02 06:10:17;;;;;;;20.35;12.48;;;15.00;61.50;;;;;;5089233;28;20044;-75
2021/03/02 06:12:50;;;;;;;17.48;12.40;;;15.00;61.40;;;;;;5076586;28;20048;-76
2021/03/02 06:15:17;;;;;;;;;;;15.10;61.40;;;;;;5075941;28;20041;-75
2021/03/02 06:17:43;;;;;;;20.55;12.27;;;15.10;61.00;;;;;;5075405;28;20253;-76
2021/03/02 06:20:19;;;;;;;23.55;11.93;;;15.10;61.20;;;;;;5073084;28;20066;-77
2021/03/02 06:22:45;;;;;;;17.35;11.32;;;15.20;61.30;;;;;;5111044;28;20036;-77
2021/03/02 06:25:33;;;;;;;18.30;11.55;;;15.20;61.40;;;;;;5095418;28;20119;-78
2021/03/02 06:27:59;;;;;;;28.95;16.90;;;15.30;61.40;;;;;;5095389;28;20441;-81
2021/03/02 06:30:25;;;;;;;24.10;12.20;;;15.30;60.10;;;;;;5077818;28;20044;-78
2021/03/02 06:33:01;;;;;;;25.02;11.85;;;15.40;60.50;;;;;;5095856;28;20101;-90
2021/03/02 06:35:42;;;;;;;26.50;13.60;;;15.40;60.80;;;;;;5077908;28;20403;-77
2021/03/02 06:38:08;;;;;;;18.95;11.38;;;15.50;61.10;;;;;;5112136;28;20042;-77
2021/03/02 06:40:46;;;;;;;20.40;11.20;;;15.50;61.00;;;;;;5113712;28;20074;-77
2021/03/02 06:43:29;;;;;;;19.88;12.10;;;15.50;60.80;;;;;;5115810;28;20114;-76
2021/03/02 06:45:55;;;;;;;19.67;12.70;;;15.50;60.70;;;;;;5102930;28;20040;-77
2021/03/02 06:48:22;;;;;;;19.30;12.55;;;15.60;61.40;;;;;;5096592;28;20047;-76
2021/03/02 06:50:48;;;;;;;19.65;12.68;;;15.60;60.80;;;;;;5109794;28;20363;-76
2021/03/02 06:53:14;;;;;;;17.20;10.90;;;15.60;60.70;;;;;;5115293;28;20043;-76
2021/03/02 06:55:41;;;;;;;16.45;11.07;;;15.60;60.80;;;;;;5113526;28;20108;-83
2021/03/02 06:58:20;;;;;;;18.27;12.10;;;15.60;60.80;;;;;;5114002;28;20039;-79
2021/03/02 07:00:52;;;;;;;24.40;12.13;;;15.70;60.60;;;;;;5115227;28;20046;-75
2021/03/02 07:03:36;;;;;;;19.52;12.80;;;15.70;60.70;;;;;;5115569;28;20039;-76
2021/03/02 07:06:07;;;;;;;32.05;20.83;;;15.70;60.30;;;;;;5100890;28;20043;-75
2021/03/02 07:08:34;;;;;;;28.60;17.13;;;15.70;58.30;;;;;;5095197;28;20066;-75
2021/03/02 07:11:02;;;;;;;28.75;15.45;;;15.60;58.30;;;;;;5095436;28;20052;-75
2021/03/02 07:13:32;;;;;;;23.77;14.32;;;15.60;58.80;;;;;;5095392;28;20040;-76
2021/03/02 07:15:59;;;;;;;30.83;15.40;;;15.60;59.00;;;;;;5095332;28;20048;-77
2021/03/02 07:18:28;;;;;;;23.02;14.77;;;15.60;59.00;;;;;;5095960;28;20093;-74
2021/03/02 07:21:00;;;;;;;24.33;14.60;;;15.60;58.90;;;;;;5115599;28;20131;-77
2021/03/02 07:23:28;;;;;;;21.20;14.20;;;15.60;58.90;;;;;;5113935;28;20130;-76
2021/03/02 07:25:56;;;;;;;22.13;13.25;;;15.60;58.80;;;;;;5114896;28;20048;-76
2021/03/02 07:28:25;;;;;;;20.20;13.63;;;15.60;58.70;;;;;;5115057;28;20043;-76
2021/03/02 07:30:54;;;;;;;19.45;13.80;;;15.60;58.60;;;;;;5115508;28;20044;-74
2021/03/02 07:33:20;;;;;;;17.92;12.82;;;15.60;58.50;;;;;;5115800;28;20122;-76
2021/03/02 07:35:47;;;;;;;21.75;13.85;;;15.60;58.50;;;;;;5115445;28;20505;-76
2021/03/02 07:38:21;;;;;;;19.88;13.80;;;15.60;58.40;;;;;;5112577;28;20039;-79
2021/03/02 07:40:54;;;;;;;29.60;19.63;;;15.60;58.20;;;;;;5098626;28;20047;-77
2021/03/02 07:43:25;;;;;;;23.95;14.68;;;15.60;57.30;;;;;;5095714;28;20044;-74
2021/03/02 07:45:52;;;;;;;20.58;13.30;;;15.50;57.60;;;;;;5099018;28;20040;-76
2021/03/02 07:48:38;;;;;;;21.77;14.70;;;15.50;58.00;;;;;;5102592;28;20050;-77
2021/03/02 07:51:22;;;;;;;20.98;14.82;;;15.50;58.10;;;;;;5112063;28;20479;-77
2021/03/02 07:53:51;;;;;;;25.20;13.60;;;15.50;58.20;;;;;;5102825;28;20048;-77
2021/03/02 07:56:20;;;;;;;22.65;14.07;;;15.50;58.20;;;;;;5080356;28;20460;-77
2021/03/02 07:59:04;;;;;;;21.83;13.60;;;15.60;58.20;;;;;;5098049;28;20430;-79
2021/03/02 08:01:30;;;;;;;22.98;13.15;;;15.60;58.40;;;;;;5106544;28;20119;-78
2021/03/02 08:04:14;;;;;;;22.83;13.93;;;15.60;58.40;;;;;;5101480;28;20036;-78
2021/03/02 08:06:48;;;;;;;21.15;13.32;;;15.60;58.40;;;;;;5097709;28;20411;-78
2021/03/02 08:09:27;;;;;;;19.23;13.32;;;15.60;58.40;;;;;;5099265;28;20509;-77
2021/03/02 08:11:54;;;;;;;19.75;12.50;;;15.60;58.40;;;;;;5106518;28;20141;-77
2021/03/02 08:14:28;;;;;;;17.55;12.25;;;15.60;58.60;;;;;;5117805;28;20044;-77
2021/03/02 08:17:03;;;;;;;17.13;12.60;;;15.70;58.70;;;;;;5110595;28;20090;-78
2021/03/02 08:19:41;;;;;;;22.58;13.05;;;15.70;58.70;;;;;;5088506;28;20472;-80
2021/03/02 08:22:37;;;;;;;24.20;13.40;;;15.70;58.70;;;;;;5083893;28;20044;-78
2021/03/02 08:25:10;;;;;;;22.05;12.95;;;15.70;58.70;;;;;;5095470;28;20047;-78
2021/03/02 08:27:49;;;;;;;21.87;13.63;;;15.70;59.00;;;;;;5078323;28;20029;-77
2021/03/02 08:30:18;;;;;;;25.35;12.48;;;15.80;59.30;;;;;;5077021;28;20282;-78
2021/03/02 08:32:44;;;;;;;21.40;14.35;;;15.80;59.30;;;;;;5077843;28;20045;-78
2021/03/02 08:35:12;;;;;;;20.00;13.38;;;15.80;59.10;;;;;;5080328;28;20107;-78
2021/03/02 08:37:56;;;;;;;21.10;13.23;;;15.80;59.00;;;;;;5092637;28;20036;-84
2021/03/02 08:40:42;;;;;;;22.05;12.75;;;15.80;59.10;;;;;;5077352;28;20044;-88
2021/03/02 08:43:20;;;;;;;24.48;13.50;;;15.80;59.20;;;;;;5078301;28;20107;-84
2021/03/02 08:45:52;;;;;;;22.85;13.05;;;15.80;60.40;;;;;;5080099;28;20473;-82
2021/03/02 08:48:32;;;;;;;18.77;12.75;;;15.90;61.50;;;;;;5070196;28;20174;-80
2021/03/02 08:51:08;;;;;;;18.60;12.27;;;15.90;60.50;;;;;;5092755;28;20058;-77
2021/03/02 08:53:47;;;;;;;18.00;11.48;;;15.90;60.50;;;;;;5096831;28;20042;-78
2021/03/02 08:56:17;;;;;;;16.95;11.30;;;15.90;60.60;;;;;;5077516;28;20194;-77
2021/03/02 08:58:44;;;;;;;19.38;11.63;;;16.00;60.80;;;;;;5089540;28;20036;-78
2021/03/02 09:01:22;;;;;;;22.13;11.52;;;16.00;61.10;;;;;;5077089;28;20056;-79
2021/03/02 09:03:50;;;;;;;19.55;12.15;;;16.00;61.20;;;;;;5076752;28;20055;-76
2021/03/02 09:06:24;;;;;;;28.38;17.42;;;16.10;61.20;;;;;;5075989;28;20521;-76
2021/03/02 09:09:01;;;;;;;31.80;19.88;;;16.20;60.20;;;;;;5089202;28;20062;-77
2021/03/02 09:11:32;;;;;;;28.27;19.52;;;16.10;58.70;;;;;;5096911;28;20052;-80
2021/03/02 09:14:01;;;;;;;26.13;14.23;;;16.00;57.80;;;;;;5097163;28;20131;-78
2021/03/02 09:16:37;;;;;;;26.58;15.63;;;16.00;58.70;;;;;;5097313;28;20173;-74
2021/03/02 09:19:09;;;;;;;29.90;17.65;;;15.90;58.50;;;;;;5089193;28;20048;-75
2021/03/02 09:21:38;;;;;;;24.98;14.35;;;15.90;58.20;;;;;;5093041;28;20410;-75
2021/03/02 09:24:04;;;;;;;21.92;15.02;;;15.90;58.70;;;;;;5093579;28;20052;-75
2021/03/02 09:26:31;;;;;;;27.77;17.95;;;15.90;58.90;;;;;;5087862;28;20090;-75
2021/03/02 09:28:59;;;;;;;26.10;14.43;;;15.90;58.30;;;;;;5096273;28;20075;-74
2021/03/02 09:31:26;;;;;;;21.80;13.57;;;15.90;58.40;;;;;;5095639;28;20726;-75
2021/03/02 09:33:53;;;;;;;23.27;13.98;;;15.90;58.60;;;;;;5096431;28;20099;-76
2021/03/02 09:36:23;;;;;;;20.85;14.02;;;15.90;58.80;;;;;;5080442;28;20143;-75
2021/03/02 09:38:50;;;;;;;23.98;14.38;;;16.00;59.00;;;;;;5079717;28;20048;-74
2021/03/02 09:41:33;;;;;;;22.00;13.40;;;16.00;58.90;;;;;;5076368;28;20040;-76
2021/03/02 09:44:25;;;;;;;21.50;13.70;;;16.00;58.90;;;;;;5077817;28;20040;-75
2021/03/02 09:46:54;;;;;;;24.85;14.23;;;16.00;59.00;;;;;;5116635;28;20320;-75
2021/03/02 09:49:32;;;;;;;21.45;15.73;;;16.00;59.10;;;;;;5084258;28;20060;-75
2021/03/02 09:51:58;;;;;;;24.20;16.67;;;16.00;58.30;;;;;;5057922;28;20040;-78
2021/03/02 09:54:23;;;;;;;29.95;17.20;;;15.90;57.50;;;;;;5088644;28;20047;-75
2021/03/02 09:56:57;;;;;;;29.00;15.45;;;15.90;57.60;;;;;;5095949;28;20423;-75
2021/03/02 09:59:24;;;;;;;;;;;15.90;58.00;;;;;;5094556;28;20048;-76
2021/03/02 10:01:50;;;;;;;39.42;20.40;;;15.90;58.30;;;;;;5095696;28;19927;-76
2021/03/02 10:04:17;;;;;;;115.15;29.35;;;15.80;57.20;;;;;;5095911;28;20051;-76
2021/03/02 10:06:44;;;;;;;51.85;23.10;;;15.90;55.90;;;;;;5095836;28;20040;-75
2021/03/02 10:09:28;;;;;;;36.63;21.52;;;15.80;54.60;;;;;;5087673;28;20044;-75
2021/03/02 10:12:10;;;;;;;42.05;23.95;;;15.70;53.40;;;;;;5074679;28;20044;-75
2021/03/02 10:14:38;;;;;;;30.95;22.48;;;15.50;52.20;;;;;;5075531;28;20119;-75
2021/03/02 10:17:05;;;;;;;33.63;22.48;;;15.20;51.60;;;;;;5075396;28;20071;-74
2021/03/02 10:19:31;;;;;;;34.38;21.15;;;14.90;51.60;;;;;;5085199;28;20079;-75
2021/03/02 10:21:59;;;;;;;32.35;20.95;;;14.70;52.70;;;;;;5095750;28;20079;-74
2021/03/02 10:24:30;;;;;;;35.05;20.65;;;14.70;54.10;;;;;;5095902;28;20040;-74
2021/03/02 10:26:58;;;;;;;31.98;20.38;;;14.70;53.80;;;;;;5080824;28;20055;-74
2021/03/02 10:29:25;;;;;;;30.30;20.75;;;14.70;53.50;;;;;;5091237;28;20140;-75
2021/03/02 10:31:52;;;;;;;28.63;19.40;;;14.60;53.50;;;;;;5095947;28;20356;-73
2021/03/02 10:34:18;;;;;;;34.15;22.13;;;14.50;53.70;;;;;;5095625;28;20066;-75
2021/03/02 10:36:45;;;;;;;31.48;21.58;;;14.50;53.90;;;;;;5083710;28;20496;-75
2021/03/02 10:39:12;;;;;;;36.08;22.25;;;14.40;53.40;;;;;;5075208;28;20135;-75
2021/03/02 10:41:39;;;;;;;36.40;23.10;;;14.30;53.90;;;;;;5075093;28;20461;-76
2021/03/02 10:44:15;;;;;;;32.08;21.58;;;14.10;53.20;;;;;;5079506;28;20048;-84
2021/03/02 10:46:41;;;;;;;32.28;21.70;;;13.90;53.80;;;;;;5103205;28;20464;-77
2021/03/02 10:49:07;;;;;;;28.70;20.63;;;13.80;54.40;;;;;;5095509;28;20039;-75
2021/03/02 10:51:33;;;;;;;31.20;21.55;;;13.80;54.80;;;;;;5094950;28;20049;-76
2021/03/02 10:54:00;;;;;;;38.92;28.33;;;13.80;55.10;;;;;;5081653;28;20052;-75
2021/03/02 10:56:27;;;;;;;32.67;22.85;;;13.80;55.50;;;;;;5083354;28;20402;-74
2021/03/02 10:58:53;;;;;;;31.00;22.40;;;13.90;55.60;;;;;;5095081;28;20108;-75
2021/03/02 11:01:20;;;;;;;35.33;23.88;;;13.90;55.50;;;;;;5095008;28;20392;-75
2021/03/02 11:03:47;;;;;;;37.28;25.83;;;13.80;55.60;;;;;;5092904;28;20346;-74
2021/03/02 11:06:15;;;;;;;33.85;24.70;;;13.70;56.00;;;;;;5088372;28;20377;-74
2021/03/02 11:08:41;;;;;;;36.10;25.00;;;13.70;56.20;;;;;;5075126;28;20372;-75
2021/03/02 11:11:07;;;;;;;38.88;27.17;;;13.60;56.40;;;;;;5075273;28;20114;-75
2021/03/02 11:13:33;;;;;;;40.38;27.98;;;13.50;56.40;;;;;;5076110;28;20052;-75
2021/03/02 11:15:59;;;;;;;39.50;27.77;;;13.40;56.60;;;;;;5090336;28;20103;-73
2021/03/02 11:18:25;;;;;;;38.90;26.48;;;13.40;57.00;;;;;;5074429;28;20110;-74
2021/03/02 11:20:51;;;;;;;44.85;28.25;;;13.30;57.40;;;;;;5074491;28;20434;-74
2021/03/02 11:23:17;;;;;;;37.60;25.05;;;13.30;57.70;;;;;;5077841;28;20079;-75
2021/03/02 11:25:44;;;;;;;40.03;26.58;;;13.20;57.70;;;;;;5079025;28;20361;-74
2021/03/02 11:28:11;;;;;;;34.53;24.35;;;13.20;58.30;;;;;;5079036;28;20115;-74
2021/03/02 11:30:38;;;;;;;36.85;24.90;;;13.20;58.40;;;;;;5084672;28;20043;-75
2021/03/02 11:33:04;;;;;;;34.88;25.50;;;13.20;58.50;;;;;;5096100;28;20101;-75
2021/03/02 11:35:30;;;;;;;35.97;24.95;;;13.20;58.60;;;;;;5098941;28;20411;-75
2021/03/02 11:38:00;;;;;;;36.92;24.38;;;13.30;58.60;;;;;;5095998;28;20102;-82
2021/03/02 11:40:27;;;;;;;36.42;24.90;;;13.20;58.60;;;;;;5080630;28;20035;-76
2021/03/02 11:42:56;;;;;;;41.03;24.83;;;13.30;58.70;;;;;;5086202;28;20044;-76
2021/03/02 11:45:29;;;;;;;37.53;25.02;;;13.20;59.00;;;;;;5080235;28;20051;-74
2021/03/02 11:47:56;;;;;;;36.35;23.85;;;13.30;59.30;;;;;;5090223;28;20044;-78
2021/03/02 11:50:22;;;;;;;34.05;23.88;;;13.30;59.30;;;;;;5085499;28;20131;-76
2021/03/02 11:52:52;;;;;;;33.90;23.88;;;13.40;59.10;;;;;;5078709;28;20048;-85
2021/03/02 11:55:19;;;;;;;36.50;23.65;;;13.50;59.10;;;;;;5077951;28;20121;-77
2021/03/02 11:57:46;;;;;;;34.58;23.13;;;13.40;59.10;;;;;;5096316;28;20067;-76
2021/03/02 12:00:16;;;;;;;34.42;23.08;;;13.40;59.10;;;;;;5097459;28;20048;-77
2021/03/02 12:02:46;;;;;;;33.28;21.80;;;13.50;59.20;;;;;;5085667;28;20072;-76
2021/03/02 12:05:14;;;;;;;29.85;22.02;;;13.60;59.10;;;;;;5079172;28;20044;-76
2021/03/02 12:07:40;;;;;;;32.15;22.58;;;13.60;59.00;;;;;;5097398;28;20168;-77
2021/03/02 12:10:09;;;;;;;31.08;22.10;;;13.70;58.90;;;;;;5090639;28;20047;-77
2021/03/02 12:12:36;;;;;;;30.17;21.83;;;13.70;58.70;;;;;;5095470;28;20043;-77
2021/03/02 12:15:04;;;;;;;29.52;20.42;;;13.70;58.60;;;;;;5096980;28;20154;-77
2021/03/02 12:17:30;;;;;;;28.58;20.88;;;13.80;58.60;;;;;;5089703;28;20048;-76
2021/03/02 12:19:56;;;;;;;28.67;20.35;;;13.90;58.50;;;;;;5097920;28;20063;-77
2021/03/02 12:22:22;;;;;;;27.75;20.13;;;13.90;58.30;;;;;;5083237;28;20072;-76
2021/03/02 12:24:49;;;;;;;26.70;20.45;;;13.90;58.30;;;;;;5079718;28;20133;-75
2021/03/02 12:27:16;;;;;;;28.38;20.80;;;14.00;58.20;;;;;;5097915;28;20398;-75
2021/03/02 12:29:43;;;;;;;27.92;19.98;;;14.00;58.30;;;;;;5097625;28;20044;-76
2021/03/02 12:32:08;;;;;;;25.58;18.73;;;14.00;58.30;;;;;;5077403;28;20116;-75
2021/03/02 12:34:34;;;;;;;29.52;20.33;;;14.00;58.30;;;;;;5081659;28;20131;-76
2021/03/02 12:37:00;;;;;;;27.83;19.90;;;14.10;58.30;;;;;;5077430;28;20464;-75
2021/03/02 12:39:26;;;;;;;26.65;18.73;;;14.10;58.30;;;;;;5080894;28;20040;-76
2021/03/02 12:41:52;;;;;;;25.73;18.80;;;14.10;58.10;;;;;;5094469;28;20040;-76
2021/03/02 12:44:17;;;;;;;25.70;18.83;;;14.10;58.10;;;;;;5094308;28;20062;-76
2021/03/02 12:46:43;;;;;;;28.30;19.60;;;14.10;58.00;;;;;;5083903;28;20048;-75
2021/03/02 12:49:09;;;;;;;25.23;17.17;;;14.20;58.10;;;;;;5098573;28;20554;-76